Time;durP1;ratioP1;P1;durP2;ratioP2;P2;SDS_P1;SDS_P2;PMS_P1;PMS_P2;Temp;Humidity;BMP_temperature;BMP_pressure;BME280_temperature;BME280_humidity;BME280_pressure;Samples;Min_cycle;Max_cycle;Signal;HPM_P1;HPM_P2
2021/10/29 00:02:04;;;;;;;9.93;7.63;;;;;;;;;;4915713;29;20314;-83
2021/10/29 00:04:31;;;;;;;8.90;8.00;;;;;;;;;;4915696;29;20211;-82
2021/10/29 00:06:58;;;;;;;11.90;8.03;;;;;;;;;;4915605;29;20231;-82
2021/10/29 00:09:27;;;;;;;7.73;6.23;;;;;;;;;;4915775;29;20210;-82
2021/10/29 00:11:54;;;;;;;8.37;6.50;;;;;;;;;;4915868;29;20211;-83
2021/10/29 00:14:22;;;;;;;9.50;7.33;;;;;;;;;;4915976;29;20286;-82
2021/10/29 00:16:49;;;;;;;8.87;6.90;;;;;;;;;;4915430;29;20229;-82
2021/10/29 00:19:16;;;;;;;9.30;7.27;;;;;;;;;;4915670;29;20594;-82
2021/10/29 00:21:44;;;;;;;9.13;7.07;;;;;;;;;;4916437;29;20439;-83
2021/10/29 00:24:11;;;;;;;9.00;7.40;;;;;;;;;;4919685;29;20258;-83
2021/10/29 00:26:40;;;;;;;6.90;6.23;;;;;;;;;;4919232;29;20207;-83
2021/10/29 00:29:07;;;;;;;7.07;6.33;;;;;;;;;;4919526;29;20254;-82
2021/10/29 00:31:34;;;;;;;7.27;6.10;;;;;;;;;;4918898;29;20207;-82
2021/10/29 00:34:02;;;;;;;8.37;7.37;;;;;;;;;;4919323;29;20200;-83
2021/10/29 00:36:30;;;;;;;7.53;6.83;;;;;;;;;;4919450;29;20222;-82
2021/10/29 00:38:57;;;;;;;9.93;6.57;;;;;;;;;;4919269;29;20628;-82
2021/10/29 00:41:24;;;;;;;7.80;6.97;;;;;;;;;;4919184;29;20223;-83
2021/10/29 00:43:53;;;;;;;7.97;7.17;;;;;;;;;;4918842;29;20357;-82
2021/10/29 00:46:21;;;;;;;7.13;6.40;;;;;;;;;;4918825;29;20199;-82
2021/10/29 00:48:49;;;;;;;11.97;7.10;;;;;;;;;;4919173;29;20271;-82
2021/10/29 00:51:17;;;;;;;9.43;6.80;;;;;;;;;;4918674;29;20247;-82
2021/10/29 00:53:44;;;;;;;7.67;6.67;;;;;;;;;;4919221;29;20263;-82
2021/10/29 00:56:12;;;;;;;8.00;6.70;;;;;;;;;;4918304;29;20204;-82
2021/10/29 00:58:39;;;;;;;8.63;6.20;;;;;;;;;;4919102;29;20199;-82
2021/10/29 01:01:08;;;;;;;8.50;7.67;;;;;;;;;;4918539;29;20215;-83
2021/10/29 01:03:38;;;;;;;8.13;6.90;;;;;;;;;;4918409;29;20231;-82
2021/10/29 01:06:05;;;;;;;7.30;6.60;;;;;;;;;;4918770;29;20211;-82
2021/10/29 01:08:33;;;;;;;8.93;7.10;;;;;;;;;;4918796;29;20223;-83
2021/10/29 01:11:00;;;;;;;8.37;6.90;;;;;;;;;;4918488;29;20203;-82
2021/10/29 01:13:28;;;;;;;7.53;6.77;;;;;;;;;;4918462;29;20282;-82
2021/10/29 01:15:56;;;;;;;9.13;6.57;;;;;;;;;;4918380;29;20207;-82
2021/10/29 01:18:25;;;;;;;7.10;6.40;;;;;;;;;;4918799;29;20203;-82
2021/10/29 01:20:53;;;;;;;7.20;6.47;;;;;;;;;;4918327;29;20262;-82
2021/10/29 01:23:21;;;;;;;8.07;6.67;;;;;;;;;;4918232;29;20231;-82
2021/10/29 01:25:48;;;;;;;7.87;7.03;;;;;;;;;;4918414;29;20207;-82
2021/10/29 01:28:15;;;;;;;8.97;6.30;;;;;;;;;;4918352;29;20286;-82
2021/10/29 01:30:42;;;;;;;9.57;7.37;;;;;;;;;;4918170;29;20207;-82
2021/10/29 01:33:10;;;;;;;7.47;6.63;;;;;;;;;;4917247;29;20231;-82
2021/10/29 01:35:37;;;;;;;8.93;7.53;;;;;;;;;;4917831;29;20262;-82
2021/10/29 01:38:06;;;;;;;8.63;6.73;;;;;;;;;;4918038;29;20266;-82
2021/10/29 01:40:33;;;;;;;9.13;8.20;;;;;;;;;;4917846;29;20757;-82
2021/10/29 01:43:00;;;;;;;10.67;7.50;;;;;;;;;;4918174;29;20708;-83
2021/10/29 01:45:27;;;;;;;7.73;6.77;;;;;;;;;;4917568;29;20199;-82
2021/10/29 01:47:55;;;;;;;10.17;7.67;;;;;;;;;;4917977;29;20213;-83
2021/10/29 01:50:22;;;;;;;8.30;7.50;;;;;;;;;;4917733;29;20238;-82
2021/10/29 01:52:49;;;;;;;12.30;7.73;;;;;;;;;;4917980;29;20200;-82
2021/10/29 01:55:18;;;;;;;11.20;7.80;;;;;;;;;;4917333;29;20266;-82
2021/10/29 01:57:45;;;;;;;10.73;7.30;;;;;;;;;;4917876;29;20212;-82
2021/10/29 02:00:14;;;;;;;11.47;8.70;;;;;;;;;;4917586;29;20748;-82
2021/10/29 02:02:42;;;;;;;13.83;11.67;;;;;;;;;;4917675;29;20234;-82
2021/10/29 02:05:10;;;;;;;11.10;9.47;;;;;;;;;;4917382;29;20214;-82
2021/10/29 02:07:38;;;;;;;10.00;8.50;;;;;;;;;;4917407;29;20298;-82
2021/10/29 02:10:06;;;;;;;11.10;8.53;;;;;;;;;;4917311;29;20350;-82
2021/10/29 02:12:35;;;;;;;27.93;15.63;;;;;;;;;;4917829;29;20262;-82
2021/10/29 02:15:03;;;;;;;34.17;20.77;;;;;;;;;;4917416;29;20203;-83
2021/10/29 02:17:31;;;;;;;23.00;16.07;;;;;;;;;;4917640;29;20199;-82
2021/10/29 02:19:59;;;;;;;17.40;12.17;;;;;;;;;;4917476;29;20203;-82
2021/10/29 02:22:26;;;;;;;12.20;10.43;;;;;;;;;;4917294;29;20250;-82
2021/10/29 02:24:53;;;;;;;15.70;12.50;;;;;;;;;;4917106;29;20214;-82
2021/10/29 02:27:20;;;;;;;19.30;15.37;;;;;;;;;;4917023;29;20207;-82
2021/10/29 02:29:49;;;;;;;16.23;11.70;;;;;;;;;;4917106;29;20258;-82
2021/10/29 02:32:16;;;;;;;10.17;9.10;;;;;;;;;;4917244;29;20263;-83
2021/10/29 02:34:44;;;;;;;11.27;10.17;;;;;;;;;;4917236;29;20203;-82
2021/10/29 02:37:11;;;;;;;11.23;9.80;;;;;;;;;;4917342;29;20238;-82
2021/10/29 02:39:38;;;;;;;14.13;9.83;;;;;;;;;;4917377;29;20231;-82
2021/10/29 02:42:06;;;;;;;10.97;8.53;;;;;;;;;;4916906;29;20559;-83
2021/10/29 02:44:33;;;;;;;9.77;8.40;;;;;;;;;;4916298;29;20287;-82
2021/10/29 02:47:02;;;;;;;14.20;9.10;;;;;;;;;;4916731;29;20294;-83
2021/10/29 02:49:29;;;;;;;13.03;9.47;;;;;;;;;;4916644;29;20299;-82
2021/10/29 02:51:56;;;;;;;11.17;10.03;;;;;;;;;;4916616;29;20207;-82
2021/10/29 02:54:23;;;;;;;9.73;8.57;;;;;;;;;;4916570;29;20207;-83
2021/10/29 02:56:51;;;;;;;9.63;8.27;;;;;;;;;;4916512;29;20232;-83
2021/10/29 02:59:18;;;;;;;14.67;9.67;;;;;;;;;;4916938;29;20294;-82
2021/10/29 03:01:45;;;;;;;9.97;8.07;;;;;;;;;;4916439;29;20203;-83
2021/10/29 03:04:14;;;;;;;8.67;7.70;;;;;;;;;;4916677;29;20262;-83
2021/10/29 03:06:41;;;;;;;10.73;9.07;;;;;;;;;;4916510;29;20207;-82
2021/10/29 03:09:08;;;;;;;9.20;8.30;;;;;;;;;;4914929;29;20266;-82
2021/10/29 03:11:36;;;;;;;10.40;9.23;;;;;;;;;;4915126;29;20295;-82
2021/10/29 03:14:03;;;;;;;9.43;8.53;;;;;;;;;;4915227;29;20200;-82
2021/10/29 03:16:31;;;;;;;10.87;9.77;;;;;;;;;;4915395;29;20204;-82
2021/10/29 03:18:58;;;;;;;11.60;8.63;;;;;;;;;;4915552;29;20230;-82
2021/10/29 03:21:27;;;;;;;10.00;8.97;;;;;;;;;;4914512;29;20611;-82
2021/10/29 03:23:54;;;;;;;13.17;8.00;;;;;;;;;;4915172;29;20267;-82
2021/10/29 03:26:21;;;;;;;9.37;8.33;;;;;;;;;;4925252;29;20214;-82
2021/10/29 03:28:48;;;;;;;15.80;8.93;;;;;;;;;;4915564;29;20215;-81
2021/10/29 03:31:16;;;;;;;11.80;8.87;;;;;;;;;;4914593;29;20203;-81
2021/10/29 03:33:43;;;;;;;9.67;8.57;;;;;;;;;;4915075;29;20206;-81
2021/10/29 03:36:11;;;;;;;12.30;10.93;;;;;;;;;;4914922;29;20210;-82
2021/10/29 03:38:51;;;;;;;9.77;8.13;;;;;;;;;;4915527;29;20291;-82
2021/10/29 03:41:23;;;;;;;8.80;7.90;;;;;;;;;;4925861;29;20754;-82
2021/10/29 03:44:02;;;;;;;12.27;9.03;;;;;;;;;;4933303;29;20711;-83
2021/10/29 03:46:30;;;;;;;9.47;8.47;;;;;;;;;;4935609;29;20701;-82
2021/10/29 03:49:05;;;;;;;10.17;9.17;;;;;;;;;;4933992;29;20239;-82
2021/10/29 03:51:35;;;;;;;10.10;8.90;;;;;;;;;;4933357;29;20198;-82
2021/10/29 03:54:07;;;;;;;9.90;8.90;;;;;;;;;;4933867;29;20574;-82
2021/10/29 03:56:42;;;;;;;10.37;9.30;;;;;;;;;;4932858;29;20257;-82
2021/10/29 03:59:11;;;;;;;12.03;8.93;;;;;;;;;;4933514;29;20209;-82
2021/10/29 04:01:38;;;;;;;10.27;8.30;;;;;;;;;;4925643;29;20694;-82
2021/10/29 04:04:06;;;;;;;10.47;9.20;;;;;;;;;;4933560;29;20226;-82
2021/10/29 04:06:33;;;;;;;14.60;10.97;;;;;;;;;;4933413;29;20202;-82
2021/10/29 04:09:00;;;;;;;42.93;30.63;;;;;;;;;;4933674;29;20202;-82
2021/10/29 04:11:35;;;;;;;188.33;112.53;;;;;;;;;;4933314;29;20242;-82
2021/10/29 04:14:05;;;;;;;255.47;154.60;;;;;;;;;;4931139;29;20209;-83
2021/10/29 04:16:36;;;;;;;149.80;94.57;;;;;;;;;;4933187;29;20213;-84
2021/10/29 04:19:03;;;;;;;170.17;111.10;;;;;;;;;;4933489;29;20195;-82
2021/10/29 04:21:31;;;;;;;90.40;60.17;;;;;;;;;;4933813;29;20203;-82
2021/10/29 04:23:58;;;;;;;66.10;47.53;;;;;;;;;;4933564;29;20313;-82
2021/10/29 04:26:25;;;;;;;237.53;148.23;;;;;;;;;;4934035;29;20281;-82
2021/10/29 04:28:55;;;;;;;268.83;134.73;;;;;;;;;;4934425;29;20206;-82
2021/10/29 04:31:25;;;;;;;103.60;64.87;;;;;;;;;;4934030;29;20206;-82
2021/10/29 04:33:53;;;;;;;193.23;102.73;;;;;;;;;;4934695;29;20278;-82
2021/10/29 04:36:20;;;;;;;137.70;82.63;;;;;;;;;;4935277;29;20584;-83
2021/10/29 04:38:48;;;;;;;143.23;103.20;;;;;;;;;;4934839;29;20289;-83
2021/10/29 04:41:16;;;;;;;108.63;65.77;;;;;;;;;;4933837;29;20207;-83
2021/10/29 04:43:43;;;;;;;36.73;27.53;;;;;;;;;;4933612;29;20270;-84
2021/10/29 04:46:12;;;;;;;38.47;23.87;;;;;;;;;;4934244;29;20211;-84
2021/10/29 04:48:39;;;;;;;22.20;15.97;;;;;;;;;;4934001;29;20278;-84
2021/10/29 04:51:07;;;;;;;16.20;12.73;;;;;;;;;;4934245;29;20682;-84
2021/10/29 04:53:34;;;;;;;13.30;10.63;;;;;;;;;;4934493;29;20285;-84
2021/10/29 04:56:01;;;;;;;14.17;12.13;;;;;;;;;;4934551;29;20646;-84
2021/10/29 04:58:28;;;;;;;12.77;11.03;;;;;;;;;;4934197;29;20203;-83
2021/10/29 05:00:56;;;;;;;18.30;12.30;;;;;;;;;;4934418;29;20234;-82
2021/10/29 05:03:24;;;;;;;17.67;11.73;;;;;;;;;;4934611;29;20244;-83
2021/10/29 05:05:52;;;;;;;10.60;9.50;;;;;;;;;;4933939;29;20199;-83
2021/10/29 05:08:19;;;;;;;14.30;10.00;;;;;;;;;;4936284;29;20623;-83
2021/10/29 05:10:46;;;;;;;15.53;13.90;;;;;;;;;;4937926;29;20262;-83
2021/10/29 05:13:13;;;;;;;30.80;26.93;;;;;;;;;;4937827;29;20210;-83
2021/10/29 05:15:41;;;;;;;27.40;23.43;;;;;;;;;;4937287;29;20206;-83
2021/10/29 05:18:13;;;;;;;19.83;14.83;;;;;;;;;;4938004;29;20262;-83
2021/10/29 05:20:42;;;;;;;13.67;9.77;;;;;;;;;;4937560;29;20197;-84
2021/10/29 05:23:09;;;;;;;30.10;23.67;;;;;;;;;;4937455;29;20198;-83
2021/10/29 05:25:36;;;;;;;54.10;33.73;;;;;;;;;;4937497;29;20613;-85
2021/10/29 05:28:05;;;;;;;29.57;23.87;;;;;;;;;;4937856;29;20265;-82
2021/10/29 05:30:33;;;;;;;22.50;16.53;;;;;;;;;;4937680;29;20322;-83
2021/10/29 05:33:00;;;;;;;19.30;13.67;;;;;;;;;;4940355;29;20241;-83
2021/10/29 05:35:28;;;;;;;14.33;11.07;;;;;;;;;;4946788;29;20203;-84
2021/10/29 05:37:57;;;;;;;10.27;9.27;;;;;;;;;;4946514;29;20207;-84
2021/10/29 05:40:25;;;;;;;12.07;9.40;;;;;;;;;;4947180;29;20221;-85
2021/10/29 05:42:52;;;;;;;9.63;8.63;;;;;;;;;;4946249;29;20302;-84
2021/10/29 05:45:19;;;;;;;10.10;9.10;;;;;;;;;;4946845;29;20226;-84
2021/10/29 05:47:47;;;;;;;9.90;8.87;;;;;;;;;;4941399;29;20262;-85
2021/10/29 05:50:14;;;;;;;10.07;9.10;;;;;;;;;;4944906;29;20664;-84
2021/10/29 05:52:44;;;;;;;10.17;9.03;;;;;;;;;;4942305;29;20199;-84
2021/10/29 05:55:15;;;;;;;11.40;10.30;;;;;;;;;;4937118;29;20631;-83
2021/10/29 05:57:43;;;;;;;11.67;9.93;;;;;;;;;;4937643;29;20540;-84
2021/10/29 06:00:12;;;;;;;12.33;9.70;;;;;;;;;;4936897;29;20233;-83
2021/10/29 06:02:39;;;;;;;12.33;9.53;;;;;;;;;;4929675;29;20726;-83
2021/10/29 06:05:07;;;;;;;12.47;9.80;;;;;;;;;;4936847;29;20250;-83
2021/10/29 06:07:35;;;;;;;12.53;10.13;;;;;;;;;;4937211;29;20209;-83
2021/10/29 06:10:02;;;;;;;14.80;11.30;;;;;;;;;;4937289;29;20302;-83
2021/10/29 06:12:31;;;;;;;12.77;11.47;;;;;;;;;;4937017;29;20198;-83
2021/10/29 06:14:58;;;;;;;16.53;12.87;;;;;;;;;;4936383;29;20739;-83
2021/10/29 06:17:27;;;;;;;17.43;13.67;;;;;;;;;;4936486;29;20258;-83
2021/10/29 06:19:55;;;;;;;11.37;10.27;;;;;;;;;;4935428;29;20202;-83
2021/10/29 06:22:24;;;;;;;13.17;10.70;;;;;;;;;;4936738;29;20213;-83
2021/10/29 06:24:52;;;;;;;12.17;10.83;;;;;;;;;;4936227;29;20226;-83
2021/10/29 06:30:08;;;;;;;14.10;11.67;;;;;;;;;;4936155;29;20189;-83
2021/10/29 06:32:37;;;;;;;13.90;11.10;;;;;;;;;;4936584;29;20572;-83
2021/10/29 06:35:05;;;;;;;16.57;12.87;;;;;;;;;;4934655;29;20211;-83
2021/10/29 06:37:33;;;;;;;13.97;11.63;;;;;;;;;;4934909;29;20203;-83
2021/10/29 06:40:00;;;;;;;12.23;10.53;;;;;;;;;;4936329;29;20626;-83
2021/10/29 06:42:30;;;;;;;12.63;10.67;;;;;;;;;;4936252;29;20202;-81
2021/10/29 06:45:09;;;;;;;10.27;9.27;;;;;;;;;;4935747;29;20285;-81
2021/10/29 06:47:46;;;;;;;11.43;10.20;;;;;;;;;;4936249;29;20573;-80
2021/10/29 07:01:16;;;;;;;8.73;7.30;;;;;;;;;;4935661;29;20669;-82
2021/10/29 07:04:11;;;;;;;12.00;8.00;;;;;;;;;;4935984;29;20198;-83
2021/10/29 07:40:02;;;;;;;6.77;6.07;;;;;;;;;;4935239;29;20658;-82
2021/10/29 07:42:35;;;;;;;5.93;5.23;;;;;;;;;;4935086;29;20281;-83
2021/10/29 07:45:03;;;;;;;8.00;5.37;;;;;;;;;;4934828;29;20214;-82
2021/10/29 07:47:30;;;;;;;5.97;5.07;;;;;;;;;;4935012;29;20270;-82
2021/10/29 07:49:57;;;;;;;4.90;4.50;;;;;;;;;;4934575;29;20603;-82
2021/10/29 07:52:26;;;;;;;9.83;5.97;;;;;;;;;;4935195;29;20230;-82
2021/10/29 07:54:53;;;;;;;7.33;4.83;;;;;;;;;;4934712;29;20210;-82
2021/10/29 07:57:21;;;;;;;7.20;5.43;;;;;;;;;;4934852;29;20222;-83
2021/10/29 07:59:48;;;;;;;5.33;4.83;;;;;;;;;;4934542;29;20249;-83
2021/10/29 08:02:17;;;;;;;8.00;4.33;;;;;;;;;;4934887;29;20230;-82
2021/10/29 08:04:44;;;;;;;8.63;5.03;;;;;;;;;;4934544;29;20325;-82
2021/10/29 08:07:12;;;;;;;6.37;4.40;;;;;;;;;;4934669;29;20621;-83
2021/10/29 08:09:41;;;;;;;7.03;5.67;;;;;;;;;;4934558;29;20242;-82
2021/10/29 08:12:10;;;;;;;8.47;5.40;;;;;;;;;;4934763;29;20646;-82
2021/10/29 08:14:37;;;;;;;7.60;5.37;;;;;;;;;;4934690;29;20238;-83
2021/10/29 08:17:05;;;;;;;6.17;5.00;;;;;;;;;;4934395;29;20257;-83
2021/10/29 08:19:33;;;;;;;8.53;5.40;;;;;;;;;;4934611;29;20254;-83
2021/10/29 08:22:01;;;;;;;7.53;6.53;;;;;;;;;;4934354;29;20202;-83
2021/10/29 08:24:29;;;;;;;6.67;5.70;;;;;;;;;;4934312;29;20664;-83
2021/10/29 08:26:59;;;;;;;7.50;5.77;;;;;;;;;;4934316;29;20234;-83
2021/10/29 08:29:26;;;;;;;11.87;7.80;;;;;;;;;;4934537;29;20199;-83
2021/10/29 08:31:54;;;;;;;7.13;6.43;;;;;;;;;;4934426;29;20215;-83
2021/10/29 08:34:24;;;;;;;7.33;6.50;;;;;;;;;;4934742;29;20589;-83
2021/10/29 08:36:51;;;;;;;6.30;5.70;;;;;;;;;;4934277;29;20203;-83
2021/10/29 08:39:20;;;;;;;6.73;5.87;;;;;;;;;;4934459;29;20734;-83
2021/10/29 08:41:48;;;;;;;8.27;7.37;;;;;;;;;;4934178;29;20766;-83
2021/10/29 08:44:17;;;;;;;8.47;6.70;;;;;;;;;;4937470;29;20723;-83
2021/10/29 08:46:45;;;;;;;8.67;6.73;;;;;;;;;;4938290;29;20335;-83
2021/10/29 08:49:14;;;;;;;6.50;5.83;;;;;;;;;;4938235;29;20264;-83
2021/10/29 08:51:42;;;;;;;8.00;6.53;;;;;;;;;;4937875;29;20242;-82
2021/10/29 08:54:10;;;;;;;7.90;6.73;;;;;;;;;;4937664;29;20207;-83
2021/10/29 08:56:37;;;;;;;7.57;6.73;;;;;;;;;;4930000;29;20218;-83
2021/10/29 08:59:11;;;;;;;7.63;6.90;;;;;;;;;;4938226;29;20234;-83
2021/10/29 09:01:57;;;;;;;10.63;8.23;;;;;;;;;;4937571;29;20191;-83
2021/10/29 09:04:37;;;;;;;8.03;6.80;;;;;;;;;;4937738;29;20195;-83
2021/10/29 09:07:17;;;;;;;7.80;5.93;;;;;;;;;;4937605;29;20198;-83
2021/10/29 09:10:03;;;;;;;10.93;6.80;;;;;;;;;;4930855;29;20193;-83
2021/10/29 09:32:20;;;;;;;6.47;5.63;;;;;;;;;;4937290;29;20197;-83
2021/10/29 09:35:04;;;;;;;7.57;5.50;;;;;;;;;;4937799;29;20228;-83
2021/10/29 09:37:38;;;;;;;7.07;5.60;;;;;;;;;;4937154;29;20198;-84
2021/10/29 09:40:09;;;;;;;6.73;5.97;;;;;;;;;;4937078;29;20196;-83
2021/10/29 09:42:39;;;;;;;6.27;5.60;;;;;;;;;;4936880;29;20232;-84
2021/10/29 09:45:14;;;;;;;6.20;5.60;;;;;;;;;;4936830;29;20228;-83
2021/10/29 09:47:46;;;;;;;6.63;5.40;;;;;;;;;;4937260;29;20569;-83
2021/10/29 09:50:25;;;;;;;11.37;8.40;;;;;;;;;;4936777;29;20277;-84
2021/10/29 09:53:07;;;;;;;8.23;5.17;;;;;;;;;;4936850;29;20241;-84
2021/10/29 09:55:51;;;;;;;15.73;12.17;;;;;;;;;;4935662;29;20186;-84
2021/10/29 09:58:19;;;;;;;5.33;4.50;;;;;;;;;;4936869;29;20742;-84
2021/10/29 10:00:47;;;;;;;5.73;4.00;;;;;;;;;;4936747;29;20240;-83
2021/10/29 10:03:16;;;;;;;4.20;3.80;;;;;;;;;;4936648;29;20206;-83
2021/10/29 10:05:46;;;;;;;12.97;9.83;;;;;;;;;;4936376;29;20325;-84
2021/10/29 10:08:14;;;;;;;6.40;5.20;;;;;;;;;;4936646;29;20206;-84
2021/10/29 10:10:46;;;;;;;4.90;4.33;;;;;;;;;;4936170;29;20222;-84
2021/10/29 10:13:14;;;;;;;4.50;3.83;;;;;;;;;;4936582;29;20194;-84
2021/10/29 10:15:42;;;;;;;7.30;6.60;;;;;;;;;;4936349;29;20195;-84
2021/10/29 10:18:09;;;;;;;20.07;16.57;;;;;;;;;;4936530;29;20245;-84
2021/10/29 10:20:37;;;;;;;9.70;7.80;;;;;;;;;;4928154;29;20205;-84
2021/10/29 10:23:07;;;;;;;3.30;3.00;;;;;;;;;;4936411;29;20199;-84
2021/10/29 10:25:44;;;;;;;10.47;4.00;;;;;;;;;;4936354;29;20226;-84
2021/10/29 10:45:18;;;;;;;4.00;3.60;;;;;;;;;;4934718;29;20222;-84
2021/10/29 10:47:50;;;;;;;4.47;4.07;;;;;;;;;;4936320;29;20289;-84
2021/10/29 10:50:21;;;;;;;6.67;3.40;;;;;;;;;;4935823;29;20274;-85
2021/10/29 10:53:15;;;;;;;3.70;3.30;;;;;;;;;;4935960;29;20730;-84
2021/10/29 10:56:06;;;;;;;4.37;3.97;;;;;;;;;;4935534;29;20207;-84
2021/10/29 10:58:44;;;;;;;6.00;3.30;;;;;;;;;;4935829;29;20649;-84
2021/10/29 11:01:22;;;;;;;6.77;3.47;;;;;;;;;;4935672;29;20214;-85
2021/10/29 11:07:02;;;;;;;4.37;3.43;;;;;;;;;;4883519;29;20236;-84
2021/10/29 11:09:59;;;;;;;5.43;3.93;;;;;;;;;;4936058;29;20197;-84
2021/10/29 11:13:07;;;;;;;3.97;3.53;;;;;;;;;;4935386;29;20190;-84
2021/10/29 11:15:35;;;;;;;3.83;3.43;;;;;;;;;;4935259;29;20291;-85
2021/10/29 11:18:03;;;;;;;4.50;3.97;;;;;;;;;;4935433;29;20209;-85
2021/10/29 11:20:47;;;;;;;3.23;2.93;;;;;;;;;;4935183;29;20581;-85
2021/10/29 11:23:21;;;;;;;6.20;3.83;;;;;;;;;;4935424;29;20198;-84
2021/10/29 11:25:50;;;;;;;6.83;4.23;;;;;;;;;;4935576;29;20256;-85
2021/10/29 11:28:20;;;;;;;3.30;3.07;;;;;;;;;;4935519;29;20238;-85
2021/10/29 11:30:47;;;;;;;6.70;3.47;;;;;;;;;;4935047;29;20261;-85
2021/10/29 11:33:16;;;;;;;3.50;3.30;;;;;;;;;;4935236;29;20203;-84
2021/10/29 11:35:55;;;;;;;5.00;3.93;;;;;;;;;;4935083;29;20201;-85
2021/10/29 11:38:23;;;;;;;7.40;4.20;;;;;;;;;;4935181;29;20241;-85
2021/10/29 11:40:51;;;;;;;4.97;3.70;;;;;;;;;;4934617;29;20210;-85
2021/10/29 11:43:24;;;;;;;4.37;3.80;;;;;;;;;;4935191;29;20214;-85
2021/10/29 11:45:51;;;;;;;4.83;3.77;;;;;;;;;;4935269;29;20259;-85
2021/10/29 11:48:19;;;;;;;6.47;4.70;;;;;;;;;;4935145;29;20241;-85
2021/10/29 11:50:47;;;;;;;8.03;4.20;;;;;;;;;;4934628;29;20296;-85
2021/10/29 11:53:16;;;;;;;5.97;3.27;;;;;;;;;;4935023;29;20233;-85
2021/10/29 11:55:47;;;;;;;4.67;3.70;;;;;;;;;;4934843;29;20206;-86
2021/10/29 11:58:20;;;;;;;6.53;5.93;;;;;;;;;;4935011;29;20229;-85
2021/10/29 12:01:05;;;;;;;4.07;3.67;;;;;;;;;;4934633;29;20570;-85
2021/10/29 12:07:13;;;;;;;3.87;3.50;;;;;;;;;;4934733;29;20206;-86
2021/10/29 12:09:24;;;;;;;5.33;4.10;;;;;;;;;;4934752;29;20206;-86
2021/10/29 12:11:55;;;;;;;4.37;3.97;;;;;;;;;;4934745;29;20236;-85
2021/10/29 12:14:32;;;;;;;6.20;3.63;;;;;;;;;;4934976;29;20257;-86
2021/10/29 12:17:07;;;;;;;6.27;5.67;;;;;;;;;;4935133;28;20194;-85
2021/10/29 12:19:37;;;;;;;5.87;4.77;;;;;;;;;;4938969;29;20302;-86
2021/10/29 12:22:11;;;;;;;3.40;3.10;;;;;;;;;;4938473;29;20271;-85
2021/10/29 12:24:48;;;;;;;7.30;4.13;;;;;;;;;;4938709;29;20205;-85
2021/10/29 12:27:26;;;;;;;4.33;3.73;;;;;;;;;;4938632;29;20734;-85
2021/10/29 12:30:13;;;;;;;6.03;3.83;;;;;;;;;;4938667;29;20634;-85
2021/10/29 12:52:58;;;;;;;5.70;4.00;;;;;;;;;;4938276;29;20253;-85
2021/10/29 13:03:44;;;;;;;4.63;3.93;;;;;;;;;;4931272;29;20778;-86
2021/10/29 13:06:16;;;;;;;5.50;4.00;;;;;;;;;;4937931;29;20240;-85
2021/10/29 13:08:44;;;;;;;5.07;3.90;;;;;;;;;;4937784;29;20205;-85
2021/10/29 13:11:15;;;;;;;5.17;4.10;;;;;;;;;;4937282;29;20207;-84
2021/10/29 13:13:45;;;;;;;4.37;3.97;;;;;;;;;;4937851;29;20209;-85
2021/10/29 13:16:14;;;;;;;6.80;5.23;;;;;;;;;;4938172;29;20555;-85
2021/10/29 13:36:00;;;;;;;6.33;5.10;;;;;;;;;;4877973;29;20213;-85
2021/10/29 13:55:15;;;;;;;9.47;5.27;;;;;;;;;;4920811;29;20207;-85
2021/10/29 13:58:11;;;;;;;7.57;5.23;;;;;;;;;;4937367;29;20588;-85
2021/10/29 14:01:10;;;;;;;6.97;6.27;;;;;;;;;;4929344;29;20197;-85
2021/10/29 14:03:51;;;;;;;5.43;4.93;;;;;;;;;;4929073;29;20717;-85
2021/10/29 14:30:55;;;;;;;7.90;6.33;;;;;;;;;;4917679;29;20202;-83
2021/10/29 14:33:26;;;;;;;7.17;5.57;;;;;;;;;;4936261;29;20672;-84
2021/10/29 14:35:55;;;;;;;7.40;6.70;;;;;;;;;;4936175;29;20198;-84
2021/10/29 14:38:31;;;;;;;7.43;5.60;;;;;;;;;;4936219;29;20202;-84
2021/10/29 14:41:02;;;;;;;5.47;4.50;;;;;;;;;;4935618;29;20186;-84
2021/10/29 14:43:35;;;;;;;8.20;6.20;;;;;;;;;;4936244;29;20203;-84
2021/10/29 14:46:10;;;;;;;9.27;7.23;;;;;;;;;;4927992;29;20215;-84
2021/10/29 14:48:45;;;;;;;10.77;9.27;;;;;;;;;;4935893;29;20207;-84
2021/10/29 15:02:38;;;;;;;9.83;8.37;;;;;;;;;;4932257;29;20222;-86
2021/10/29 15:16:44;;;;;;;13.63;10.97;;;;;;;;;;4915191;29;20233;-86
2021/10/29 15:27:52;;;;;;;18.27;13.53;;;;;;;;;;4935438;29;20632;-84
2021/10/29 15:30:26;;;;;;;9.90;8.13;;;;;;;;;;4935017;29;20198;-84
2021/10/29 15:33:12;;;;;;;19.03;12.00;;;;;;;;;;4935303;29;20194;-84
2021/10/29 15:41:22;;;;;;;8.80;7.60;;;;;;;;;;4934844;29;20229;-84
2021/10/29 15:43:54;;;;;;;9.23;6.67;;;;;;;;;;4935124;29;20194;-84
2021/10/29 15:46:28;;;;;;;37.20;28.10;;;;;;;;;;4933379;29;20308;-84
2021/10/29 15:49:02;;;;;;;28.57;20.53;;;;;;;;;;4933808;29;20330;-84
2021/10/29 15:51:29;;;;;;;15.27;11.23;;;;;;;;;;4933747;29;20232;-84
2021/10/29 15:53:59;;;;;;;9.43;7.77;;;;;;;;;;4933115;29;20210;-84
2021/10/29 15:56:32;;;;;;;12.33;8.30;;;;;;;;;;4934117;29;20190;-84
2021/10/29 15:59:10;;;;;;;14.53;10.43;;;;;;;;;;4933693;29;20630;-85
2021/10/29 16:01:42;;;;;;;74.37;38.67;;;;;;;;;;4934260;29;20233;-85
2021/10/29 16:17:53;;;;;;;7.20;6.43;;;;;;;;;;4934948;29;20640;-84
2021/10/29 16:20:22;;;;;;;8.43;7.03;;;;;;;;;;4934868;29;20229;-85
2021/10/29 16:22:51;;;;;;;12.33;8.47;;;;;;;;;;4934789;29;20202;-85
2021/10/29 16:25:20;;;;;;;22.83;13.53;;;;;;;;;;4934358;29;20210;-85
2021/10/29 16:27:54;;;;;;;21.77;14.73;;;;;;;;;;4934914;29;20261;-85
2021/10/29 16:30:24;;;;;;;19.80;14.23;;;;;;;;;;4934470;29;20214;-85
2021/10/29 16:33:08;;;;;;;19.13;12.60;;;;;;;;;;4934864;29;20200;-85
2021/10/29 16:35:39;;;;;;;17.23;12.03;;;;;;;;;;4934639;29;20590;-85
2021/10/29 16:38:07;;;;;;;16.70;11.90;;;;;;;;;;4935002;29;20238;-85
2021/10/29 16:40:35;;;;;;;12.30;9.43;;;;;;;;;;4934255;29;20218;-85
2021/10/29 16:43:04;;;;;;;16.03;10.23;;;;;;;;;;4934592;29;20216;-85
2021/10/29 16:45:31;;;;;;;12.20;8.97;;;;;;;;;;4934121;29;20676;-84
2021/10/29 16:47:58;;;;;;;17.73;14.47;;;;;;;;;;4934346;29;20262;-85
2021/10/29 16:50:26;;;;;;;24.57;19.03;;;;;;;;;;4934145;29;20227;-85
2021/10/29 16:52:54;;;;;;;20.17;15.47;;;;;;;;;;4934576;29;20622;-84
2021/10/29 16:55:22;;;;;;;13.60;12.07;;;;;;;;;;4934442;29;20230;-85
2021/10/29 16:57:49;;;;;;;12.17;10.80;;;;;;;;;;4934682;29;20234;-85
2021/10/29 17:00:17;;;;;;;11.73;9.67;;;;;;;;;;4934189;29;20206;-84
2021/10/29 17:02:45;;;;;;;9.70;7.90;;;;;;;;;;4934360;29;20203;-85
2021/10/29 17:05:12;;;;;;;18.00;11.17;;;;;;;;;;4937042;29;20277;-85
2021/10/29 17:07:40;;;;;;;30.23;15.97;;;;;;;;;;4937777;29;20616;-85
2021/10/29 17:10:14;;;;;;;19.13;12.63;;;;;;;;;;4937947;29;20203;-85
2021/10/29 17:12:42;;;;;;;15.27;11.20;;;;;;;;;;4938087;29;20282;-85
2021/10/29 17:15:11;;;;;;;16.93;12.53;;;;;;;;;;4937659;29;20238;-86
2021/10/29 17:17:39;;;;;;;20.70;13.73;;;;;;;;;;4930012;29;20253;-85
2021/10/29 17:20:08;;;;;;;23.07;12.97;;;;;;;;;;4937924;29;20202;-85
2021/10/29 17:22:36;;;;;;;18.60;15.23;;;;;;;;;;4937470;29;20673;-85
2021/10/29 17:25:04;;;;;;;20.37;14.07;;;;;;;;;;4937286;29;20207;-84
2021/10/29 17:27:33;;;;;;;16.80;12.43;;;;;;;;;;4937476;29;20234;-84
2021/10/29 17:30:00;;;;;;;13.13;10.80;;;;;;;;;;4937056;29;20648;-85
2021/10/29 17:32:27;;;;;;;20.03;13.27;;;;;;;;;;4937755;29;20235;-85
2021/10/29 17:34:54;;;;;;;10.20;8.63;;;;;;;;;;4937185;29;20293;-84
2021/10/29 17:37:22;;;;;;;9.93;8.60;;;;;;;;;;4937252;29;20237;-85
2021/10/29 17:39:49;;;;;;;12.57;9.97;;;;;;;;;;4937035;29;20230;-85
2021/10/29 17:42:17;;;;;;;13.30;7.93;;;;;;;;;;4937417;29;20634;-85
2021/10/29 17:44:45;;;;;;;12.33;8.47;;;;;;;;;;4950255;29;20641;-84
2021/10/29 17:47:13;;;;;;;17.50;12.23;;;;;;;;;;4956315;29;20233;-85
2021/10/29 17:49:40;;;;;;;14.33;11.50;;;;;;;;;;4955960;29;20244;-84
2021/10/29 17:52:08;;;;;;;18.13;11.60;;;;;;;;;;4956272;29;20253;-85
2021/10/29 17:54:38;;;;;;;12.70;9.70;;;;;;;;;;4956327;29;20201;-84
2021/10/29 17:57:07;;;;;;;12.37;10.97;;;;;;;;;;4955873;29;20274;-84
2021/10/29 17:59:36;;;;;;;12.10;10.07;;;;;;;;;;4956370;29;20229;-85
2021/10/29 18:02:08;;;;;;;15.30;13.83;;;;;;;;;;4953779;29;20210;-85
2021/10/29 18:04:36;;;;;;;14.47;12.00;;;;;;;;;;4955747;29;20274;-86
2021/10/29 18:07:04;;;;;;;19.13;15.17;;;;;;;;;;4955627;29;20714;-85
2021/10/29 18:09:36;;;;;;;18.30;13.23;;;;;;;;;;4955670;29;20686;-85
2021/10/29 18:12:04;;;;;;;22.30;17.10;;;;;;;;;;4955878;29;20245;-84
2021/10/29 18:14:33;;;;;;;24.20;17.03;;;;;;;;;;4956258;28;20201;-85
2021/10/29 18:17:00;;;;;;;11.33;10.23;;;;;;;;;;4941505;29;20690;-84
2021/10/29 18:19:29;;;;;;;34.10;24.70;;;;;;;;;;4936726;29;20236;-85
2021/10/29 18:21:56;;;;;;;16.57;14.20;;;;;;;;;;4936062;29;20202;-84
2021/10/29 18:24:23;;;;;;;17.93;11.20;;;;;;;;;;4928755;29;20210;-84
2021/10/29 18:26:51;;;;;;;9.40;8.43;;;;;;;;;;4917411;29;20227;-86
2021/10/29 18:29:18;;;;;;;9.97;7.23;;;;;;;;;;4917382;29;20638;-85
2021/10/29 18:31:45;;;;;;;9.93;8.10;;;;;;;;;;4917415;29;20199;-85
2021/10/29 18:34:13;;;;;;;8.77;7.90;;;;;;;;;;4917182;29;20214;-85
2021/10/29 18:36:41;;;;;;;10.70;8.40;;;;;;;;;;4931145;29;20289;-85